Time;durP1;ratioP1;P1;durP2;ratioP2;P2;SDS_P1;SDS_P2;PMS_P1;PMS_P2;Temp;Humidity;BMP_temperature;BMP_pressure;BME280_temperature;BME280_humidity;BME280_pressure;Samples;Min_cycle;Max_cycle;Signal;HPM_P1;HPM_P2
2022/08/08 00:02:14;;;;;;;12.87;6.20;;;;;;;21.76;100.00;102355.38;5077319;28;20301;-60
2022/08/08 00:04:53;;;;;;;11.70;6.23;;;;;;;21.57;100.00;102355.44;5073902;28;20284;-60
2022/08/08 00:07:27;;;;;;;11.73;6.13;;;;;;;21.58;100.00;102364.44;5072149;28;20273;-60
2022/08/08 00:10:13;;;;;;;12.63;6.77;;;;;;;21.60;100.00;102354.16;5068761;28;20286;-61
2022/08/08 00:12:42;;;;;;;11.53;6.60;;;;;;;21.47;100.00;102357.91;5073194;28;20774;-60
2022/08/08 00:15:18;;;;;;;13.97;7.47;;;;;;;21.51;100.00;102348.22;5073714;28;20266;-60
2022/08/08 00:17:54;;;;;;;12.57;6.60;;;;;;;21.27;100.00;102355.44;5071071;28;20044;-59
2022/08/08 00:20:30;;;;;;;12.32;7.45;;;;;;;21.24;100.00;102358.63;5079137;28;20276;-59
2022/08/08 00:23:01;;;;;;;13.67;6.97;;;;;;;21.19;100.00;102353.88;5075020;28;20060;-59
2022/08/08 00:25:38;;;;;;;12.50;7.07;;;;;;;21.22;100.00;102352.59;5079513;28;20277;-60
2022/08/08 00:28:05;;;;;;;;;;;;;;;21.14;100.00;102346.44;5072589;28;20272;-62
2022/08/08 00:30:35;;;;;;;13.73;6.70;;;;;;;21.20;100.00;102345.50;5058185;28;19917;-60
2022/08/08 00:33:16;;;;;;;14.10;6.97;;;;;;;21.14;100.00;102345.59;5076102;28;20261;-60
2022/08/08 00:35:50;;;;;;;14.67;7.17;;;;;;;21.20;100.00;102347.38;5073357;28;20269;-60
2022/08/08 00:38:31;;;;;;;15.57;6.93;;;;;;;21.11;100.00;102338.75;5070904;28;20266;-60
2022/08/08 00:41:34;;;;;;;16.87;7.10;;;;;;;21.19;100.00;102343.00;5062339;28;20277;-59
2022/08/08 00:44:40;;;;;;;11.90;6.50;;;;;;;21.15;100.00;102336.38;5074612;28;20289;-60
2022/08/08 00:47:19;;;;;;;11.67;6.50;;;;;;;21.10;100.00;102341.66;5050866;28;20290;-60
2022/08/08 00:50:07;;;;;;;15.73;7.47;;;;;;;21.02;100.00;102345.53;5059866;28;20314;-59
2022/08/08 00:52:42;;;;;;;17.33;6.37;;;;;;;20.85;100.00;102342.63;5073663;28;20341;-60
2022/08/08 00:55:39;;;;;;;18.50;6.90;;;;;;;21.08;100.00;102338.34;5057888;28;20360;-60
2022/08/08 00:58:48;;;;;;;14.98;6.97;;;;;;;21.03;100.00;102341.75;5062720;28;20285;-60
2022/08/08 01:01:17;;;;;;;;;;;;;;;20.93;100.00;102336.84;5077492;28;20166;-60
2022/08/08 01:04:27;;;;;;;14.60;6.73;;;;;;;20.87;100.00;102337.78;5060657;28;19912;-61
2022/08/08 01:07:14;;;;;;;9.53;5.80;;;;;;;20.90;100.00;102337.31;5056074;28;20283;-60
2022/08/08 01:10:10;;;;;;;14.97;6.73;;;;;;;20.99;100.00;102333.25;5062276;28;20295;-58
2022/08/08 01:12:56;;;;;;;10.83;5.57;;;;;;;20.87;100.00;102335.06;5076144;28;20297;-59
2022/08/08 01:15:50;;;;;;;11.30;6.68;;;;;;;20.99;100.00;102335.13;5080962;28;20269;-61
2022/08/08 01:18:37;;;;;;;10.67;6.20;;;;;;;20.85;100.00;102334.47;5058616;28;20633;-61
2022/08/08 01:21:21;;;;;;;13.60;6.63;;;;;;;20.80;100.00;102337.84;5056559;28;20393;-60
2022/08/08 01:24:18;;;;;;;14.63;7.37;;;;;;;20.80;100.00;102337.84;5072897;28;20274;-59
2022/08/08 01:27:29;;;;;;;14.73;6.40;;;;;;;20.81;100.00;102341.41;5074732;28;20282;-61
2022/08/08 01:30:13;;;;;;;10.33;6.30;;;;;;;21.27;100.00;102339.13;5027587;28;20108;-61
2022/08/08 01:33:20;;;;;;;10.70;6.07;;;;;;;21.22;100.00;102337.13;5063365;28;20265;-59
2022/08/08 01:36:11;;;;;;;11.07;5.60;;;;;;;21.16;100.00;102341.59;5060417;28;20319;-60
2022/08/08 01:38:56;;;;;;;10.03;6.03;;;;;;;21.16;100.00;102332.59;5061857;28;20272;-60
2022/08/08 01:41:34;;;;;;;11.87;5.83;;;;;;;21.20;100.00;102341.94;5079488;28;20262;-59
2022/08/08 01:44:26;;;;;;;10.77;5.70;;;;;;;21.12;100.00;102342.28;5075472;28;20289;-60
2022/08/08 01:47:28;;;;;;;11.60;6.07;;;;;;;21.03;100.00;102334.44;5080434;28;20320;-61
2022/08/08 01:50:26;;;;;;;12.93;5.70;;;;;;;21.04;100.00;102330.66;5093091;28;20288;-61
2022/08/08 01:53:05;;;;;;;7.90;5.33;;;;;;;20.97;100.00;102335.34;5075390;28;20364;-60
2022/08/08 01:56:08;;;;;;;12.57;5.77;;;;;;;21.00;100.00;102329.47;5075668;28;20294;-60
2022/08/08 01:58:55;;;;;;;10.53;5.80;;;;;;;20.96;100.00;102333.69;5078293;28;20289;-61
2022/08/08 02:01:39;;;;;;;7.47;5.20;;;;;;;20.91;100.00;102331.66;5078267;28;20265;-60
2022/08/08 02:04:19;;;;;;;12.73;5.53;;;;;;;20.94;100.00;102333.09;5076301;28;20295;-59
2022/08/08 02:07:03;;;;;;;16.83;5.93;;;;;;;20.95;100.00;102342.91;5076701;28;20277;-60
2022/08/08 02:10:14;;;;;;;8.67;5.53;;;;;;;20.87;100.00;102337.78;5076310;28;20279;-60
2022/08/08 02:12:56;;;;;;;14.00;5.80;;;;;;;20.86;100.00;102342.38;5080198;28;20272;-60
2022/08/08 02:15:55;;;;;;;9.63;5.10;;;;;;;20.83;100.00;102344.75;5075359;28;20275;-59
2022/08/08 02:18:32;;;;;;;11.07;5.00;;;;;;;20.77;100.00;102346.44;5091428;28;20262;-60
2022/08/08 02:24:01;;;;;;;8.23;5.17;;;;;;;20.82;100.00;102346.63;5079241;28;20032;-60
2022/08/08 02:26:37;;;;;;;8.87;5.00;;;;;;;20.88;100.00;102347.59;5073217;28;20282;-61
2022/08/08 02:29:16;;;;;;;9.27;5.20;;;;;;;20.81;100.00;102349.56;5070531;28;20284;-60
2022/08/08 02:31:44;;;;;;;13.53;5.63;;;;;;;20.84;100.00;102346.41;5095669;28;20324;-61
2022/08/08 02:34:39;;;;;;;8.23;5.17;;;;;;;20.74;100.00;102345.00;5089204;28;20296;-60
2022/08/08 02:37:24;;;;;;;11.23;5.77;;;;;;;20.60;100.00;102346.22;5093626;28;20274;-60
2022/08/08 02:40:03;;;;;;;9.23;5.87;;;;;;;20.56;100.00;102347.75;5079811;28;20273;-60
2022/08/08 02:42:53;;;;;;;9.83;5.47;;;;;;;20.55;100.00;102351.53;5063060;28;20280;-59
2022/08/08 02:45:56;;;;;;;10.20;5.47;;;;;;;20.53;100.00;102353.59;5068420;28;20282;-60
2022/08/08 02:48:27;;;;;;;11.57;5.90;;;;;;;20.53;100.00;102359.03;5068681;28;20320;-60
2022/08/08 02:51:49;;;;;;;12.50;5.10;;;;;;;20.45;100.00;102355.56;5053967;28;20341;-61
2022/08/08 02:54:24;;;;;;;9.77;5.77;;;;;;;20.36;100.00;102354.22;5010269;28;20331;-60
2022/08/08 02:57:20;;;;;;;12.43;6.40;;;;;;;20.36;100.00;102354.22;5066295;28;20303;-60
2022/08/08 03:00:09;;;;;;;11.53;6.30;;;;;;;20.36;100.00;102340.63;5049133;28;20273;-61
2022/08/08 03:03:15;;;;;;;14.73;5.70;;;;;;;20.42;100.00;102349.78;5069415;28;20267;-60
2022/08/08 03:05:47;;;;;;;12.17;5.30;;;;;;;20.36;100.00;102351.50;5050473;28;20354;-61
2022/08/08 03:08:26;;;;;;;9.47;5.43;;;;;;;20.28;100.00;102346.34;5051209;28;20385;-60
2022/08/08 03:11:26;;;;;;;10.63;5.50;;;;;;;20.24;100.00;102348.69;5049788;28;20313;-60
2022/08/08 03:14:20;;;;;;;18.00;6.27;;;;;;;20.13;100.00;102344.81;5050016;28;20346;-61
2022/08/08 03:17:16;;;;;;;11.33;6.03;;;;;;;20.12;100.00;102342.31;5050231;28;20294;-59
2022/08/08 03:20:06;;;;;;;10.00;5.60;;;;;;;20.01;100.00;102343.88;5030759;28;20300;-60
2022/08/08 03:22:49;;;;;;;13.53;6.37;;;;;;;19.97;100.00;102354.38;5048478;28;20290;-61
2022/08/08 03:25:16;;;;;;;10.50;5.63;;;;;;;20.08;100.00;102352.81;5046315;28;20266;-59
2022/08/08 03:27:52;;;;;;;11.40;6.10;;;;;;;20.04;100.00;102357.84;5042896;28;20281;-61
2022/08/08 03:30:21;;;;;;;12.40;5.50;;;;;;;20.02;100.00;102359.97;5046934;28;20295;-60
2022/08/08 03:35:39;;;;;;;10.33;5.80;;;;;;;20.01;100.00;102349.31;5042904;28;20319;-59
2022/08/08 03:38:07;;;;;;;10.27;5.90;;;;;;;19.97;100.00;102350.81;5048563;28;20254;-61
2022/08/08 03:40:33;;;;;;;12.50;6.13;;;;;;;19.98;100.00;102357.91;5065837;28;20275;-59
2022/08/08 03:43:09;;;;;;;12.83;6.27;;;;;;;19.86;100.00;102358.59;5051203;28;20294;-60
2022/08/08 03:45:37;;;;;;;14.93;6.27;;;;;;;19.79;100.00;102360.50;5045855;28;20286;-60
2022/08/08 03:48:09;;;;;;;15.05;6.82;;;;;;;19.90;100.00;102356.25;5061004;28;20290;-60
2022/08/08 03:50:45;;;;;;;10.40;6.40;;;;;;;19.80;100.00;102355.94;5040385;28;20037;-60
2022/08/08 03:53:16;;;;;;;12.27;6.03;;;;;;;19.67;100.00;102367.72;5062557;28;20258;-60
2022/08/08 03:55:48;;;;;;;10.37;6.07;;;;;;;19.70;100.00;102367.28;5064556;28;20265;-59
2022/08/08 03:58:22;;;;;;;10.17;5.63;;;;;;;19.73;100.00;102367.69;5062404;28;20270;-62
2022/08/08 04:00:57;;;;;;;12.37;7.10;;;;;;;19.74;100.00;102363.06;5046580;28;20297;-62
2022/08/08 04:03:33;;;;;;;11.87;6.77;;;;;;;19.83;100.00;102369.88;5046142;28;20261;-61
2022/08/08 04:06:07;;;;;;;13.70;6.70;;;;;;;19.78;100.00;102370.56;5045275;28;20295;-60
2022/08/08 04:08:36;;;;;;;13.87;6.27;;;;;;;19.74;100.00;102368.50;5051023;28;20319;-60
2022/08/08 04:11:08;;;;;;;11.73;6.40;;;;;;;19.83;100.00;102367.16;5051577;28;20269;-59
2022/08/08 04:13:35;;;;;;;14.13;6.83;;;;;;;19.90;100.00;102372.53;5049092;28;20275;-60
2022/08/08 04:16:01;;;;;;;14.07;5.82;;;;;;;19.92;100.00;102375.91;5047330;28;20269;-61
2022/08/08 04:18:28;;;;;;;12.07;6.87;;;;;;;19.82;100.00;102379.06;5046405;28;20038;-61
2022/08/08 04:20:54;;;;;;;14.87;6.93;;;;;;;19.70;100.00;102380.84;5053502;28;20296;-61
2022/08/08 04:23:21;;;;;;;12.20;7.07;;;;;;;19.75;100.00;102379.16;5049702;28;20116;-61
2022/08/08 04:25:46;;;;;;;10.40;5.70;;;;;;;19.78;100.00;102386.00;5053490;28;20286;-60
2022/08/08 04:28:12;;;;;;;12.85;6.85;;;;;;;19.81;100.00;102390.16;5050286;28;20033;-60
2022/08/08 04:30:38;;;;;;;15.35;6.63;;;;;;;19.78;100.00;102391.44;5068465;28;20040;-62
2022/08/08 04:33:04;;;;;;;12.70;6.40;;;;;;;19.71;100.00;102390.66;5068636;28;20034;-60
2022/08/08 04:35:31;;;;;;;12.63;6.30;;;;;;;19.65;100.00;102391.53;5054521;28;20051;-60
2022/08/08 04:37:57;;;;;;;15.07;6.78;;;;;;;19.75;100.00;102397.31;5048960;28;20301;-61
2022/08/08 04:40:30;;;;;;;19.37;5.40;;;;;;;19.87;100.00;102392.00;5051723;28;20029;-61
2022/08/08 04:42:57;;;;;;;11.57;5.35;;;;;;;19.93;100.00;102399.28;5062281;28;20318;-60
2022/08/08 04:45:25;;;;;;;15.40;8.00;;;;;;;20.05;100.00;102407.53;5069399;28;20029;-61
2022/08/08 04:47:55;;;;;;;16.53;9.97;;;;;;;20.17;100.00;102402.22;5073802;28;20279;-62
2022/08/08 04:50:22;;;;;;;24.63;11.33;;;;;;;20.09;100.00;102407.94;5071001;28;20278;-61
2022/08/08 04:52:47;;;;;;;24.42;11.80;;;;;;;20.22;100.00;102410.56;5069816;28;20288;-61
2022/08/08 04:55:16;;;;;;;27.67;10.93;;;;;;;20.17;100.00;102407.66;5069225;28;20059;-59
2022/08/08 04:57:41;;;;;;;24.38;9.63;;;;;;;20.18;100.00;102410.16;5090451;28;20269;-61
2022/08/08 05:00:08;;;;;;;26.50;10.98;;;;;;;20.31;100.00;102406.50;5075158;28;20032;-60
2022/08/08 05:02:34;;;;;;;35.87;16.13;;;;;;;20.39;100.00;102415.41;5072834;28;20028;-60
2022/08/08 05:05:00;;;;;;;49.70;23.23;;;;;;;20.35;100.00;102418.56;5069249;28;20281;-60
2022/08/08 05:07:28;;;;;;;19.67;8.87;;;;;;;20.33;100.00;102426.13;5065035;28;20059;-62
2022/08/08 05:09:54;;;;;;;32.38;13.25;;;;;;;20.20;100.00;102432.50;5089139;28;20270;-62
2022/08/08 05:12:20;;;;;;;20.33;10.20;;;;;;;20.13;100.00;102426.28;5070717;28;20040;-60
2022/08/08 05:14:47;;;;;;;30.05;14.10;;;;;;;20.12;100.00;102440.09;5071903;28;20278;-61
2022/08/08 05:17:12;;;;;;;44.47;17.55;;;;;;;20.23;100.00;102436.66;5070594;28;20092;-60
2022/08/08 05:19:39;;;;;;;19.67;9.23;;;;;;;20.21;100.00;102436.06;5086089;28;20025;-61
2022/08/08 05:22:07;;;;;;;9.07;4.13;;;;;;;20.20;100.00;102437.13;5067434;28;20270;-60
2022/08/08 05:24:34;;;;;;;17.17;5.23;;;;;;;20.29;100.00;102440.34;5071785;28;20075;-60
2022/08/08 05:27:00;;;;;;;19.97;6.20;;;;;;;20.02;100.00;102436.00;5089833;28;20297;-60
2022/08/08 05:29:26;;;;;;;;;;;;;;;20.01;100.00;102444.34;5071336;28;20288;-60
2022/08/08 05:31:52;;;;;;;8.03;4.80;;;;;;;20.08;100.00;102434.28;5067577;28;19964;-61
2022/08/08 05:34:32;;;;;;;5.07;3.42;;;;;;;20.11;100.00;102439.25;5069447;28;20091;-60
2022/08/08 05:37:01;;;;;;;10.50;5.07;;;;;;;20.18;100.00;102437.31;5069145;28;20067;-60
2022/08/08 05:39:27;;;;;;;7.97;4.80;;;;;;;20.19;100.00;102435.44;5071509;28;20270;-62
2022/08/08 05:41:53;;;;;;;9.57;5.30;;;;;;;20.58;100.00;102435.31;5089456;28;20282;-62
2022/08/08 05:44:28;;;;;;;11.48;5.18;;;;;;;20.18;100.00;102431.88;5061093;28;20062;-61
2022/08/08 05:46:55;;;;;;;8.87;5.33;;;;;;;20.27;100.00;102435.16;5065410;28;20041;-60
2022/08/08 05:49:21;;;;;;;11.40;5.87;;;;;;;20.12;100.00;102438.22;5057358;28;20274;-58
2022/08/08 05:51:47;;;;;;;7.63;4.93;;;;;;;20.19;100.00;102438.16;5050772;28;20284;-61
2022/08/08 05:54:13;;;;;;;;;;;;;;;20.23;100.00;102438.53;5053191;28;20039;-60
2022/08/08 05:56:41;;;;;;;14.03;4.80;;;;;;;20.17;100.00;102445.69;5050669;28;19928;-61
2022/08/08 05:59:28;;;;;;;10.87;5.07;;;;;;;20.40;100.00;102450.50;5064251;28;20278;-61
2022/08/08 06:01:55;;;;;;;11.33;5.03;;;;;;;20.40;100.00;102444.22;5068854;28;20266;-60
2022/08/08 06:04:27;;;;;;;14.10;5.97;;;;;;;20.61;100.00;102445.72;5063002;28;20323;-60
2022/08/08 06:06:58;;;;;;;13.60;5.43;;;;;;;20.57;100.00;102447.25;5061470;28;20316;-61
2022/08/08 06:09:31;;;;;;;10.47;4.50;;;;;;;20.57;100.00;102456.22;5061448;28;20270;-62
2022/08/08 06:12:00;;;;;;;13.30;4.50;;;;;;;20.77;100.00;102456.03;5068057;28;20268;-61
2022/08/08 06:14:27;;;;;;;12.47;4.00;;;;;;;20.80;100.00;102457.47;5078804;28;20266;-61
2022/08/08 06:16:56;;;;;;;7.07;4.23;;;;;;;20.86;100.00;102458.47;5045884;28;20337;-62
2022/08/08 06:19:29;;;;;;;11.68;4.03;;;;;;;20.78;100.00;102457.69;5060832;28;20272;-61
2022/08/08 06:21:55;;;;;;;12.50;3.80;;;;;;;20.96;100.00;102464.22;5058442;28;20060;-60
2022/08/08 06:24:25;;;;;;;5.93;3.43;;;;;;;20.94;100.00;102458.16;5063932;28;20239;-60
2022/08/08 06:27:08;;;;;;;14.10;5.15;;;;;;;21.03;100.00;102461.41;5062527;28;20290;-61
2022/08/08 06:29:52;;;;;;;12.40;5.17;;;;;;;21.10;100.00;102467.59;5057039;28;20033;-61
2022/08/08 06:32:23;;;;;;;5.47;2.27;;;;;;;21.22;100.00;102469.56;5068780;28;20265;-61
2022/08/08 06:34:53;;;;;;;9.33;3.60;;;;;;;21.07;100.00;102462.63;5042372;28;20029;-61
2022/08/08 06:37:22;;;;;;;7.93;3.07;;;;;;;21.25;100.00;102467.25;5055571;28;20028;-60
2022/08/08 06:39:49;;;;;;;9.17;4.60;;;;;;;21.18;100.00;102469.19;5059914;28;20040;-61
2022/08/08 06:42:17;;;;;;;5.73;2.97;;;;;;;21.37;100.00;102470.03;5060657;28;20112;-62
2022/08/08 06:44:48;;;;;;;7.53;3.53;;;;;;;21.19;100.00;102471.69;5092452;28;20024;-60
2022/08/08 06:47:14;;;;;;;12.63;3.60;;;;;;;21.42;100.00;102478.31;5079746;28;20089;-65
2022/08/08 06:49:41;;;;;;;7.35;3.80;;;;;;;21.47;100.00;102480.38;5095351;28;20052;-61
2022/08/08 06:52:07;;;;;;;6.17;2.67;;;;;;;21.08;100.00;102477.06;5082049;28;20032;-61
2022/08/08 06:54:33;;;;;;;10.25;3.15;;;;;;;21.45;100.00;102491.47;5082785;28;20024;-62
2022/08/08 06:57:00;;;;;;;7.43;3.17;;;;;;;21.49;100.00;102486.41;5090007;28;20116;-60
2022/08/08 06:59:27;;;;;;;6.00;3.20;;;;;;;21.54;100.00;102481.09;5071870;28;20024;-61
2022/08/08 07:02:00;;;;;;;5.47;2.43;;;;;;;21.73;100.00;102489.28;5071076;28;20039;-62
2022/08/08 07:04:54;;;;;;;6.13;2.80;;;;;;;21.59;100.00;102480.44;5074918;28;20032;-62
2022/08/08 07:07:50;;;;;;;5.87;3.17;;;;;;;21.90;100.00;102482.09;5075059;28;20599;-62
2022/08/08 07:10:19;;;;;;;5.93;3.27;;;;;;;22.11;100.00;102484.53;5063931;28;20045;-61
2022/08/08 07:12:51;;;;;;;4.53;2.20;;;;;;;22.13;100.00;102485.94;5076233;28;20092;-60
2022/08/08 07:15:42;;;;;;;8.30;3.00;;;;;;;22.19;100.00;102484.19;5070513;28;20048;-61
2022/08/08 07:18:09;;;;;;;7.47;2.80;;;;;;;22.22;100.00;102496.50;5093320;28;20062;-60
2022/08/08 07:20:43;;;;;;;4.93;2.43;;;;;;;22.03;100.00;102502.03;5079553;28;20501;-62
2022/08/08 07:23:14;;;;;;;4.67;2.20;;;;;;;22.31;100.00;102503.28;5077755;28;20048;-61
2022/08/08 07:25:43;;;;;;;6.33;1.80;;;;;;;22.37;100.00;102502.31;5089853;28;20036;-61
2022/08/08 07:28:12;;;;;;;7.60;2.23;;;;;;;22.55;100.00;102508.78;5090141;28;20036;-61
2022/08/08 07:30:40;;;;;;;6.93;2.80;;;;;;;22.51;100.00;102503.00;5069821;28;20115;-61
2022/08/08 07:33:10;;;;;;;49.83;21.50;;;;;;;22.68;100.00;102503.09;5069355;28;20036;-62
2022/08/08 07:35:38;;;;;;;16.13;7.03;;;;;;;22.67;100.00;102501.44;5069891;28;20096;-60
2022/08/08 07:38:04;;;;;;;23.07;10.20;;;;;;;22.73;100.00;102497.75;5068733;28;20032;-60
2022/08/08 07:40:44;;;;;;;10.97;3.97;;;;;;;22.70;100.00;102500.97;5069822;28;20532;-60
2022/08/08 07:43:12;;;;;;;26.97;9.60;;;;;;;22.72;100.00;102504.28;5069483;28;20067;-62
2022/08/08 07:45:43;;;;;;;10.67;4.57;;;;;;;22.63;100.00;102506.53;5055644;28;20032;-61
2022/08/08 07:48:09;;;;;;;11.27;4.20;;;;;;;22.75;100.00;102509.25;5071754;28;20048;-60
2022/08/08 07:50:36;;;;;;;;;;;;;;;22.93;100.00;102502.03;5079006;28;20048;-61
2022/08/08 07:53:20;;;;;;;20.23;7.75;;;;;;;22.98;100.00;102506.78;5082537;28;19912;-60
2022/08/08 07:55:51;;;;;;;14.43;6.70;;;;;;;23.06;100.00;102509.94;5072043;28;20021;-62
2022/08/08 07:58:30;;;;;;;18.53;9.80;;;;;;;22.76;100.00;102507.38;5073381;28;20020;-62
2022/08/08 08:01:10;;;;;;;33.17;14.73;;;;;;;23.06;100.00;102514.59;5070915;28;20391;-61
2022/08/08 08:03:49;;;;;;;22.60;9.57;;;;;;;23.44;100.00;102515.97;5076506;28;20033;-62
2022/08/08 08:06:19;;;;;;;10.40;4.13;;;;;;;23.17;100.00;102516.44;5082150;28;20085;-61
2022/08/08 08:09:07;;;;;;;20.03;7.10;;;;;;;22.86;100.00;102523.16;5081906;28;20087;-60
2022/08/08 08:11:36;;;;;;;58.53;31.30;;;;;;;23.51;100.00;102525.91;5079458;28;20059;-61
2022/08/08 08:14:03;;;;;;;34.73;18.40;;;;;;;23.13;100.00;102519.91;5080491;28;20040;-62
2022/08/08 08:16:33;;;;;;;50.10;24.73;;;;;;;22.92;100.00;102516.72;5082096;28;20032;-62
2022/08/08 08:19:05;;;;;;;19.97;8.00;;;;;;;23.03;100.00;102515.88;5082278;28;20032;-61
2022/08/08 08:21:42;;;;;;;162.27;84.03;;;;;;;23.15;100.00;102524.03;5083775;28;20024;-61
2022/08/08 08:24:13;;;;;;;64.77;33.83;;;;;;;23.15;100.00;102521.31;5087740;28;20028;-61
2022/08/08 08:26:39;;;;;;;41.30;17.80;;;;;;;23.41;100.00;102516.44;5057912;28;20036;-61
2022/08/08 08:29:05;;;;;;;74.38;34.80;;;;;;;23.16;100.00;102520.25;5082129;28;20043;-61
2022/08/08 08:31:32;;;;;;;66.20;30.63;;;;;;;23.29;100.00;102523.81;5075938;28;20162;-61
2022/08/08 08:33:58;;;;;;;;;;;;;;;23.56;100.00;102529.56;5095064;28;20060;-61
2022/08/08 08:36:24;;;;;;;17.73;8.93;;;;;;;23.43;100.00;102529.84;5095423;28;19912;-62
2022/08/08 08:38:51;;;;;;;13.60;4.60;;;;;;;23.55;100.00;102527.06;5095162;28;20080;-62
2022/08/08 08:41:22;;;;;;;7.47;2.93;;;;;;;23.61;100.00;102524.22;5079438;28;20058;-61
2022/08/08 08:43:50;;;;;;;12.83;5.53;;;;;;;23.69;100.00;102522.16;5068534;28;20034;-61
2022/08/08 08:46:15;;;;;;;15.37;5.50;;;;;;;23.77;100.00;102529.97;5090557;28;20353;-61
2022/08/08 08:48:44;;;;;;;11.40;5.40;;;;;;;23.88;100.00;102533.72;5063122;28;20087;-61
2022/08/08 08:51:14;;;;;;;13.60;5.17;;;;;;;23.92;100.00;102530.25;5085877;28;20035;-61
2022/08/08 08:53:54;;;;;;;10.77;4.70;;;;;;;24.02;100.00;102535.09;5064997;28;20032;-62
2022/08/08 08:56:24;;;;;;;14.57;4.47;;;;;;;24.01;100.00;102541.63;5064863;28;20055;-60
2022/08/08 08:58:57;;;;;;;6.60;3.13;;;;;;;23.87;100.00;102538.34;5066811;28;20094;-62
2022/08/08 09:01:32;;;;;;;7.17;3.50;;;;;;;24.07;100.00;102534.38;5065485;28;20064;-60
2022/08/08 09:04:05;;;;;;;7.23;3.23;;;;;;;24.13;100.00;102532.56;5060746;28;20048;-60
2022/08/08 09:06:39;;;;;;;5.00;1.93;;;;;;;24.11;100.00;102532.00;5075692;28;20341;-62
2022/08/08 09:09:08;;;;;;;3.23;1.80;;;;;;;24.09;100.00;102537.69;5059441;28;20036;-60
2022/08/08 09:11:37;;;;;;;3.43;1.60;;;;;;;24.33;100.00;102532.88;5072857;28;20087;-62
2022/08/08 09:14:03;;;;;;;6.47;1.70;;;;;;;24.28;100.00;102534.72;5051336;28;20503;-62
2022/08/08 09:16:31;;;;;;;5.93;2.10;;;;;;;24.53;100.00;102544.44;5072041;28;20095;-61
2022/08/08 09:18:58;;;;;;;1.97;1.37;;;;;;;24.65;100.00;102538.88;5068034;28;20048;-61
2022/08/08 09:21:25;;;;;;;;;;;;;;;24.75;100.00;102542.63;5061632;28;20415;-61
2022/08/08 09:23:53;;;;;;;4.93;1.70;;;;;;;24.94;100.00;102539.63;5062449;28;20007;-62
2022/08/08 09:26:57;;;;;;;3.87;1.53;;;;;;;25.18;100.00;102542.13;5060568;28;20048;-61
2022/08/08 09:29:23;;;;;;;4.40;1.93;;;;;;;25.47;100.00;102544.69;5078716;28;20093;-62
2022/08/08 09:32:04;;;;;;;121.13;66.57;;;;;;;25.76;100.00;102547.22;5061485;28;20110;-61
2022/08/08 09:34:38;;;;;;;26.53;14.20;;;;;;;26.60;100.00;102544.97;5061022;28;20029;-61
2022/08/08 09:37:09;;;;;;;212.07;125.90;;;;;;;27.10;100.00;102557.66;5061060;28;20036;-61
2022/08/08 09:40:05;;;;;;;69.37;40.10;;;;;;;27.60;96.04;102548.00;5075822;28;20086;-62
2022/08/08 09:42:43;;;;;;;49.50;27.33;;;;;;;28.42;89.66;102553.88;5058077;28;20053;-62
2022/08/08 09:45:12;;;;;;;32.08;17.67;;;;;;;28.94;83.51;102549.16;5063838;28;20056;-61
2022/08/08 09:47:39;;;;;;;45.72;23.58;;;;;;;28.03;89.70;102542.31;5065288;28;20037;-62
2022/08/08 09:50:08;;;;;;;25.50;11.63;;;;;;;28.70;83.18;102546.97;5068858;28;20025;-62
2022/08/08 09:52:34;;;;;;;29.23;14.93;;;;;;;28.72;85.93;102553.03;5067273;28;20087;-63
2022/08/08 09:55:00;;;;;;;15.70;7.57;;;;;;;28.88;76.22;102544.78;5068770;28;20092;-62
2022/08/08 09:57:40;;;;;;;8.48;4.38;;;;;;;30.29;70.44;102552.00;5063980;28;20049;-62
2022/08/08 10:00:09;;;;;;;8.07;3.40;;;;;;;31.13;63.34;102558.34;5069003;28;20092;-62
2022/08/08 10:02:42;;;;;;;57.53;29.60;;;;;;;29.64;71.69;102560.47;5067714;28;20072;-62
2022/08/08 10:05:15;;;;;;;47.53;18.55;;;;;;;28.89;77.81;102562.94;5062400;28;20048;-62
2022/08/08 10:07:49;;;;;;;5.10;2.50;;;;;;;28.94;76.06;102562.09;5065876;28;20044;-61
2022/08/08 10:10:32;;;;;;;11.27;5.10;;;;;;;30.73;64.75;102564.06;5068826;28;20045;-63
2022/08/08 10:13:17;;;;;;;16.10;8.05;;;;;;;30.36;68.48;102568.25;5067138;28;20029;-62
2022/08/08 10:15:52;;;;;;;32.05;12.75;;;;;;;31.02;64.10;102565.94;5063412;28;20037;-62
2022/08/08 10:18:30;;;;;;;;;;;;;;;30.18;68.67;102567.84;5063465;28;20041;-60
2022/08/08 10:21:06;;;;;;;20.83;10.93;;;;;;;29.81;66.59;102560.91;5064755;28;19976;-61
2022/08/08 10:23:46;;;;;;;;;;;;;;;29.36;73.71;102554.53;5069516;28;20028;-60
2022/08/08 10:26:29;;;;;;;25.65;13.02;;;;;;;30.09;70.26;102560.47;5069631;28;19997;-61
2022/08/08 10:29:01;;;;;;;35.72;17.10;;;;;;;31.83;61.69;102561.63;5066388;28;20550;-61
2022/08/08 10:34:18;;;;;;;11.77;6.32;;;;;;;31.30;59.57;102565.38;5064368;28;20036;-64
2022/08/08 10:36:44;;;;;;;15.18;5.95;;;;;;;30.44;64.08;102561.28;5068374;28;20025;-63
2022/08/08 10:39:17;;;;;;;18.85;8.40;;;;;;;30.32;66.35;102558.91;5065419;28;20102;-61
2022/08/08 10:41:53;;;;;;;12.02;4.53;;;;;;;29.91;70.09;102554.50;5067993;28;20049;-62
2022/08/08 10:44:27;;;;;;;10.65;3.25;;;;;;;29.71;67.70;102549.94;5092063;28;20029;-61
2022/08/08 10:46:53;;;;;;;6.53;1.73;;;;;;;29.68;69.17;102547.75;5087349;28;20032;-62
2022/08/08 10:49:23;;;;;;;6.88;1.98;;;;;;;29.82;71.21;102557.03;5091333;28;20091;-62
2022/08/08 10:51:49;;;;;;;3.53;1.73;;;;;;;29.23;73.92;102548.50;5092336;28;20028;-62
2022/08/08 10:54:21;;;;;;;5.57;2.13;;;;;;;28.86;76.58;102547.00;5091206;28;20054;-64
2022/08/08 10:56:56;;;;;;;4.70;1.80;;;;;;;29.21;75.84;102549.91;5094080;28;20023;-61
2022/08/08 10:59:21;;;;;;;3.33;1.52;;;;;;;28.89;75.87;102546.44;5095458;28;20059;-61
2022/08/08 11:01:47;;;;;;;1.88;1.27;;;;;;;28.97;76.08;102545.84;5091734;28;20032;-61
2022/08/08 11:04:12;;;;;;;3.92;1.58;;;;;;;29.54;77.94;102548.41;5093270;28;20083;-61
2022/08/08 11:06:38;;;;;;;2.95;1.63;;;;;;;29.50;75.24;102547.28;5090340;28;20045;-60
2022/08/08 11:09:08;;;;;;;10.95;4.40;;;;;;;29.35;72.16;102548.16;5093160;28;20047;-61
2022/08/08 11:11:38;;;;;;;22.20;12.95;;;;;;;29.24;76.39;102547.38;5092185;28;20033;-61
2022/08/08 11:14:06;;;;;;;21.73;12.02;;;;;;;29.27;77.69;102552.31;5091901;28;20047;-61
2022/08/08 11:16:34;;;;;;;13.18;5.28;;;;;;;29.46;74.56;102555.31;5083356;28;20096;-60
2022/08/08 11:19:03;;;;;;;11.68;6.60;;;;;;;29.89;73.02;102554.78;5090483;28;20039;-60
2022/08/08 11:21:39;;;;;;;15.57;6.38;;;;;;;30.18;69.68;102553.22;5090574;28;20074;-59
2022/08/08 11:24:07;;;;;;;8.63;2.70;;;;;;;30.55;66.88;102550.97;5089165;28;20021;-61
2022/08/08 11:26:35;;;;;;;11.00;5.10;;;;;;;31.17;65.26;102550.31;5090202;28;20092;-61
2022/08/08 11:29:02;;;;;;;4.47;2.50;;;;;;;31.43;66.51;102550.00;5094335;28;20028;-60
2022/08/08 11:31:32;;;;;;;6.15;2.90;;;;;;;31.21;66.09;102551.41;5100073;28;20030;-61
2022/08/08 11:34:02;;;;;;;4.45;1.88;;;;;;;30.98;63.84;102553.00;5092246;28;20037;-61
2022/08/08 11:36:28;;;;;;;3.50;2.13;;;;;;;30.86;67.09;102545.13;5095841;28;20024;-61
2022/08/08 11:38:55;;;;;;;3.88;1.75;;;;;;;31.34;64.28;102552.59;5102590;28;20032;-60
2022/08/08 11:41:22;;;;;;;4.55;1.55;;;;;;;31.70;61.01;102546.56;5095404;28;20024;-59
2022/08/08 11:43:49;;;;;;;5.30;2.58;;;;;;;32.24;61.41;102538.00;5089360;28;20056;-60
2022/08/08 11:46:15;;;;;;;5.00;2.00;;;;;;;32.71;59.02;102542.72;5088849;28;20043;-61
2022/08/08 11:48:42;;;;;;;1.50;1.05;;;;;;;31.77;60.55;102543.44;5071333;28;20039;-60
2022/08/08 11:51:10;;;;;;;4.03;1.00;;;;;;;32.14;59.80;102533.47;5094175;28;20058;-60
2022/08/08 11:53:36;;;;;;;3.20;1.73;;;;;;;33.23;58.45;102528.66;5090039;28;20047;-60
2022/08/08 11:56:01;;;;;;;4.57;1.30;;;;;;;34.30;52.39;102543.06;5091490;28;20032;-62
2022/08/08 11:58:32;;;;;;;5.10;2.13;;;;;;;35.63;47.95;102540.72;5094061;28;20038;-60